Time;durP1;ratioP1;P1;durP2;ratioP2;P2;SDS_P1;SDS_P2;PMS_P1;PMS_P2;Temp;Humidity;BMP_temperature;BMP_pressure;BME280_temperature;BME280_humidity;BME280_pressure;Samples;Min_cycle;Max_cycle;Signal;HPM_P1;HPM_P2
2022/06/28 00:02:02;;;;;;;8.50;5.37;;;;;;;14.96;100.00;101464.13;5023860;28;20060;-75
2022/06/28 00:04:27;;;;;;;8.35;4.68;;;;;;;15.01;100.00;101469.88;5026226;28;20302;-75
2022/06/28 00:06:53;;;;;;;5.85;4.85;;;;;;;15.09;100.00;101480.56;5026575;28;20033;-75
2022/06/28 00:09:19;;;;;;;8.25;4.78;;;;;;;15.06;100.00;101469.34;5029198;28;20397;-75
2022/06/28 00:11:44;;;;;;;7.30;5.70;;;;;;;15.02;100.00;101465.31;5028817;28;20551;-76
2022/06/28 00:16:57;;;;;;;7.30;4.75;;;;;;;14.91;100.00;101491.56;4987966;28;20033;-77
2022/06/28 00:19:23;;;;;;;5.72;5.13;;;;;;;14.98;100.00;101502.44;5029134;28;20618;-75
2022/06/28 00:21:49;;;;;;;7.67;5.90;;;;;;;15.06;100.00;101509.69;5019016;28;20041;-75
2022/06/28 00:24:14;;;;;;;9.30;7.57;;;;;;;15.11;100.00;101513.50;5009181;28;20298;-75
2022/06/28 00:26:41;;;;;;;12.90;7.13;;;;;;;15.05;100.00;101502.59;5009681;28;20034;-75
2022/06/28 00:29:06;;;;;;;;;;;;;;;15.01;100.00;101512.03;5026542;28;20022;-75
2022/06/28 00:31:32;;;;;;;;;;;;;;;15.07;100.00;101517.56;5011946;28;19917;-75
2022/06/28 00:33:57;;;;;;;10.97;7.17;;;;;;;15.03;100.00;101510.00;5035298;28;19917;-75
2022/06/28 00:36:23;;;;;;;11.17;7.73;;;;;;;15.02;100.00;101487.66;5027370;28;20497;-75
2022/06/28 00:38:48;;;;;;;9.43;8.03;;;;;;;14.91;100.00;101482.66;5011253;28;20633;-75
2022/06/28 00:41:14;;;;;;;10.27;7.57;;;;;;;14.77;100.00;101486.88;5026692;28;20040;-75
2022/06/28 00:43:39;;;;;;;8.93;7.50;;;;;;;14.67;100.00;101497.84;5010899;28;20577;-76
2022/06/28 00:46:07;;;;;;;8.70;6.53;;;;;;;14.69;100.00;101520.00;5010802;28;20394;-77
2022/06/28 00:48:33;;;;;;;11.50;7.30;;;;;;;14.68;100.00;101518.34;5028504;28;20473;-76
2022/06/28 00:50:58;;;;;;;9.55;6.30;;;;;;;14.75;100.00;101518.50;5026860;28;20047;-74
2022/06/28 00:53:24;;;;;;;9.48;6.60;;;;;;;14.64;100.00;101508.94;5027243;28;20034;-76
2022/06/28 00:55:49;;;;;;;11.70;6.83;;;;;;;14.77;100.00;101521.81;5026129;28;20087;-77
2022/06/28 00:58:15;;;;;;;10.03;6.07;;;;;;;14.61;100.00;101503.03;5040609;28;20032;-75
2022/06/28 01:00:44;;;;;;;7.93;5.40;;;;;;;14.68;100.00;101499.53;5026716;28;20069;-76
2022/06/28 01:03:14;;;;;;;9.07;5.55;;;;;;;14.62;100.00;101500.19;5025716;28;20054;-76
2022/06/28 01:05:42;;;;;;;7.97;5.35;;;;;;;14.64;100.00;101503.56;5025728;28;20568;-76
2022/06/28 01:08:08;;;;;;;6.82;5.03;;;;;;;14.67;100.00;101521.19;5027039;28;20348;-76
2022/06/28 01:10:35;;;;;;;5.18;4.50;;;;;;;14.65;100.00;101523.19;5025935;28;20047;-75
2022/06/28 01:13:01;;;;;;;8.90;5.60;;;;;;;14.59;100.00;101522.03;5009659;28;20555;-75
2022/06/28 01:15:27;;;;;;;5.72;4.72;;;;;;;14.45;100.00;101520.03;5026191;28;20029;-76
2022/06/28 01:18:16;;;;;;;4.43;3.97;;;;;;;14.42;100.00;101515.81;5008929;28;20064;-77
2022/06/28 01:20:45;;;;;;;6.55;4.32;;;;;;;14.46;100.00;101519.00;5007918;28;20041;-74
2022/06/28 01:23:32;;;;;;;5.57;4.20;;;;;;;14.50;100.00;101521.19;4994006;28;20041;-76
2022/06/28 01:26:12;;;;;;;7.28;4.57;;;;;;;14.47;100.00;101512.59;5001196;28;20038;-76
2022/06/28 01:28:43;;;;;;;7.10;4.32;;;;;;;14.48;100.00;101514.28;4999125;28;20555;-76
2022/06/28 01:31:20;;;;;;;5.53;3.83;;;;;;;14.39;100.00;101512.63;5008096;28;20137;-74
2022/06/28 01:33:50;;;;;;;5.70;4.47;;;;;;;14.35;100.00;101518.34;5000186;28;20088;-74
2022/06/28 01:36:15;;;;;;;7.00;4.20;;;;;;;14.35;100.00;101521.03;5002101;28;20033;-76
2022/06/28 01:38:43;;;;;;;7.15;5.43;;;;;;;14.35;100.00;101534.47;5004277;28;20111;-77
2022/06/28 01:43:56;;;;;;;5.28;4.40;;;;;;;14.36;100.00;101536.13;5007624;28;20129;-77
2022/06/28 01:46:21;;;;;;;;;;;;;;;14.43;100.00;101552.41;5001848;28;20051;-75
2022/06/28 01:48:56;;;;;;;7.82;4.82;;;;;;;14.38;100.00;101549.41;4997763;28;20301;-75
2022/06/28 01:51:21;;;;;;;10.55;4.85;;;;;;;14.27;100.00;101542.50;5024205;28;20033;-75
2022/06/28 01:53:47;;;;;;;9.70;4.78;;;;;;;14.23;100.00;101525.03;5007884;28;20037;-75
2022/06/28 01:56:23;;;;;;;7.47;4.35;;;;;;;14.25;100.00;101522.19;5024080;28;20597;-75
2022/06/28 01:59:04;;;;;;;4.90;4.15;;;;;;;14.18;100.00;101513.97;5024188;28;20038;-75
2022/06/28 02:01:56;;;;;;;6.90;4.20;;;;;;;14.12;100.00;101520.84;5013727;28;20124;-75
2022/06/28 02:04:27;;;;;;;6.03;4.25;;;;;;;13.93;100.00;101513.97;5024303;28;20025;-75
2022/06/28 02:07:02;;;;;;;11.45;4.38;;;;;;;13.89;100.00;101517.97;5009116;28;20247;-74
2022/06/28 02:09:34;;;;;;;7.93;4.97;;;;;;;13.76;100.00;101527.50;5023706;28;20069;-75
2022/06/28 02:12:00;;;;;;;6.30;4.75;;;;;;;13.83;100.00;101534.72;5007736;28;20132;-75
2022/06/28 02:14:29;;;;;;;6.10;5.28;;;;;;;13.74;100.00;101538.38;5024289;28;20033;-75
2022/06/28 02:16:58;;;;;;;6.72;4.72;;;;;;;13.79;100.00;101549.50;5021060;28;20037;-75
2022/06/28 02:19:25;;;;;;;9.07;5.83;;;;;;;13.79;100.00;101545.94;5025196;28;20053;-76
2022/06/28 02:21:51;;;;;;;8.23;5.28;;;;;;;13.78;100.00;101547.81;5007501;28;20033;-74
2022/06/28 02:24:18;;;;;;;5.32;4.55;;;;;;;13.76;100.00;101546.28;5023644;28;20571;-75
2022/06/28 02:26:43;;;;;;;5.55;4.75;;;;;;;13.71;100.00;101561.03;5007488;28;20120;-75
2022/06/28 02:29:09;;;;;;;4.87;4.10;;;;;;;13.75;100.00;101558.03;5007637;28;20051;-75
2022/06/28 02:31:36;;;;;;;7.53;4.70;;;;;;;13.79;100.00;101568.28;5007348;28;20036;-75
2022/06/28 02:34:03;;;;;;;13.15;5.00;;;;;;;13.89;100.00;101579.72;5024016;28;20034;-75
2022/06/28 02:41:41;;;;;;;5.78;4.18;;;;;;;14.01;100.00;101571.34;5023205;28;20018;-75
2022/06/28 02:44:08;;;;;;;;;;;;;;;14.09;100.00;101572.22;5023850;28;20033;-75
2022/06/28 02:46:33;;;;;;;7.18;4.35;;;;;;;14.05;100.00;101572.72;5007330;28;19912;-75
2022/06/28 02:48:59;;;;;;;5.80;4.30;;;;;;;14.07;100.00;101573.34;5023909;28;20049;-75
2022/06/28 02:51:24;;;;;;;3.73;3.33;;;;;;;14.14;100.00;101582.44;5023134;28;20021;-75
2022/06/28 02:53:52;;;;;;;4.90;3.13;;;;;;;14.20;100.00;101578.25;5023374;28;20566;-76
2022/06/28 02:56:18;;;;;;;4.75;3.50;;;;;;;14.20;100.00;101578.25;5024987;28;20542;-75
2022/06/28 02:58:43;;;;;;;6.45;3.83;;;;;;;14.21;100.00;101577.25;5024534;28;20080;-75
2022/06/28 03:01:09;;;;;;;6.27;3.10;;;;;;;14.26;100.00;101578.44;5023316;28;20036;-74
2022/06/28 03:03:35;;;;;;;6.57;4.20;;;;;;;14.24;100.00;101575.06;5012395;28;20041;-77
2022/06/28 03:06:02;;;;;;;5.47;4.60;;;;;;;14.19;100.00;101565.81;5015122;28;20029;-76
2022/06/28 03:08:27;;;;;;;;;;;;;;;14.23;100.00;101567.16;5027867;28;20905;-74
2022/06/28 03:10:54;;;;;;;5.55;3.42;;;;;;;14.27;100.00;101576.59;5017936;28;19924;-74
2022/06/28 03:13:19;;;;;;;5.87;4.10;;;;;;;14.20;100.00;101579.09;5026881;28;20033;-75
2022/06/28 03:15:45;;;;;;;4.90;3.80;;;;;;;14.22;100.00;101582.44;5027130;28;20333;-75
2022/06/28 03:18:10;;;;;;;5.83;3.67;;;;;;;14.17;100.00;101573.22;5026687;28;20033;-75
2022/06/28 03:20:36;;;;;;;5.47;3.60;;;;;;;14.23;100.00;101573.38;5010605;28;20640;-75
2022/06/28 03:23:02;;;;;;;5.35;3.92;;;;;;;14.15;100.00;101566.16;5010773;28;20486;-75
2022/06/28 03:25:28;;;;;;;8.35;3.92;;;;;;;14.18;100.00;101570.34;5010859;28;20025;-76
2022/06/28 03:27:54;;;;;;;4.73;3.83;;;;;;;14.23;100.00;101573.38;5010457;28;20072;-75
2022/06/28 03:30:19;;;;;;;4.93;4.43;;;;;;;14.22;100.00;101574.41;5027209;28;20450;-74
2022/06/28 03:32:45;;;;;;;5.97;4.00;;;;;;;14.23;100.00;101572.53;5026772;28;20025;-76
2022/06/28 03:35:15;;;;;;;6.95;4.25;;;;;;;14.28;100.00;101580.94;5010907;28;20043;-75
2022/06/28 03:37:40;;;;;;;6.93;3.83;;;;;;;14.18;100.00;101589.16;5026171;28;20025;-75
2022/06/28 03:40:08;;;;;;;8.80;4.18;;;;;;;14.22;100.00;101582.44;5010458;28;20032;-75
2022/06/28 03:42:40;;;;;;;7.85;4.07;;;;;;;14.19;100.00;101590.00;5026954;28;20116;-75
2022/06/28 03:45:06;;;;;;;9.00;4.80;;;;;;;14.18;100.00;101583.78;5026582;28;20132;-74
2022/06/28 03:47:32;;;;;;;;;;;;;;;14.10;100.00;101597.22;5026721;28;20092;-75
2022/06/28 03:50:16;;;;;;;4.97;4.03;;;;;;;14.15;100.00;101600.25;5025540;28;20392;-75
2022/06/28 03:52:51;;;;;;;6.38;4.68;;;;;;;14.20;100.00;101599.75;5011178;28;20033;-75
2022/06/28 03:55:35;;;;;;;7.70;4.47;;;;;;;14.22;100.00;101608.47;5023017;28;20044;-75
2022/06/28 03:58:00;;;;;;;7.60;4.73;;;;;;;14.35;100.00;101620.41;5010201;28;20037;-75
2022/06/28 04:00:25;;;;;;;10.73;5.23;;;;;;;14.38;100.00;101624.63;5020353;28;20022;-75
2022/06/28 04:02:51;;;;;;;10.13;4.83;;;;;;;14.48;100.00;101629.81;5026083;28;20029;-75
2022/06/28 04:05:22;;;;;;;4.82;4.13;;;;;;;14.44;100.00;101633.84;5026682;28;20115;-76
2022/06/28 04:07:48;;;;;;;5.53;3.83;;;;;;;14.38;100.00;101638.06;5011889;28;20027;-75
2022/06/28 04:10:14;;;;;;;6.53;4.28;;;;;;;14.45;100.00;101640.91;5027778;28;20059;-76
2022/06/28 04:12:44;;;;;;;9.43;4.60;;;;;;;14.52;100.00;101647.31;5026903;28;20029;-75
2022/06/28 04:15:17;;;;;;;6.95;4.28;;;;;;;14.58;100.00;101649.34;5027359;28;20099;-75
2022/06/28 04:17:44;;;;;;;5.75;4.90;;;;;;;14.56;100.00;101660.28;5026005;28;20506;-75
2022/06/28 04:20:28;;;;;;;8.18;4.13;;;;;;;14.62;100.00;101658.75;5027245;28;20091;-75
2022/06/28 04:23:01;;;;;;;6.65;5.13;;;;;;;14.63;100.00;101655.03;5025877;28;20029;-75
2022/06/28 04:25:27;;;;;;;7.97;4.93;;;;;;;14.69;100.00;101656.25;5025882;28;20471;-75
2022/06/28 04:27:56;;;;;;;5.80;4.57;;;;;;;14.66;100.00;101653.91;5026136;28;20067;-75
2022/06/28 04:30:25;;;;;;;8.55;5.88;;;;;;;14.56;100.00;101654.03;5025419;28;20406;-76
2022/06/28 04:32:54;;;;;;;10.07;4.40;;;;;;;14.64;100.00;101650.53;5024504;28;20029;-75
2022/06/28 04:35:21;;;;;;;9.80;3.58;;;;;;;14.71;100.00;101659.59;5008821;28;20482;-75
2022/06/28 04:37:47;;;;;;;7.27;4.93;;;;;;;14.68;100.00;101658.09;5009360;28;20025;-76
2022/06/28 04:40:28;;;;;;;7.63;5.35;;;;;;;15.07;100.00;101667.31;5025350;28;20041;-76
2022/06/28 04:43:10;;;;;;;5.97;4.90;;;;;;;15.52;100.00;101665.88;5023225;28;20067;-76
2022/06/28 04:45:36;;;;;;;6.07;4.27;;;;;;;15.89;100.00;101650.97;5026000;28;20538;-76
2022/06/28 04:48:07;;;;;;;6.57;3.78;;;;;;;16.12;100.00;101656.41;5009803;28;20080;-76
2022/06/28 04:50:33;;;;;;;4.80;4.10;;;;;;;15.93;100.00;101647.75;5009484;28;20068;-75
2022/06/28 04:52:58;;;;;;;7.90;3.80;;;;;;;16.11;100.00;101639.44;5006561;28;20034;-75
2022/06/28 04:55:24;;;;;;;5.57;3.90;;;;;;;16.14;100.00;101643.63;5010022;28;20375;-76
2022/06/28 04:58:03;;;;;;;6.35;4.10;;;;;;;15.99;100.00;101635.44;5026516;28;20109;-75
2022/06/28 05:00:29;;;;;;;4.78;3.90;;;;;;;16.12;100.00;101638.41;5006878;28;20201;-76
2022/06/28 05:03:01;;;;;;;4.10;3.63;;;;;;;16.03;100.00;101637.59;5011476;28;20112;-75
2022/06/28 05:05:53;;;;;;;5.93;3.65;;;;;;;16.03;100.00;101631.38;5025521;28;20049;-76
2022/06/28 05:08:19;;;;;;;7.05;4.30;;;;;;;15.81;100.00;101631.16;5025354;28;20112;-76
2022/06/28 05:11:02;;;;;;;5.20;3.90;;;;;;;15.81;100.00;101643.78;5008067;28;20057;-76
2022/06/28 05:13:48;;;;;;;6.75;4.55;;;;;;;15.77;100.00;101637.06;5033167;28;20067;-76
2022/06/28 05:16:15;;;;;;;6.85;4.07;;;;;;;15.72;100.00;101644.84;5024863;28;20581;-75
2022/06/28 05:18:43;;;;;;;6.10;3.70;;;;;;;15.87;100.00;101661.06;5025459;28;20438;-76
2022/06/28 05:21:10;;;;;;;7.00;3.42;;;;;;;16.07;100.00;101672.28;5024935;28;20057;-76
2022/06/28 05:23:38;;;;;;;4.80;2.65;;;;;;;16.38;100.00;101666.88;5023881;28;20032;-76
2022/06/28 05:26:33;;;;;;;8.80;3.10;;;;;;;16.89;100.00;101640.22;5025341;28;20501;-76
2022/06/28 05:29:13;;;;;;;5.20;3.17;;;;;;;16.86;100.00;101617.16;5023703;28;20634;-76
2022/06/28 05:31:39;;;;;;;3.58;3.05;;;;;;;17.26;100.00;101612.38;5027024;28;20105;-77
2022/06/28 05:34:04;;;;;;;7.67;3.60;;;;;;;17.21;100.00;101573.47;5027692;28;20625;-77
2022/06/28 05:36:30;;;;;;;4.72;3.72;;;;;;;17.36;100.00;101585.09;5026091;28;20033;-76
2022/06/28 05:38:56;;;;;;;5.93;3.13;;;;;;;17.38;100.00;101563.31;5025141;28;20025;-75
2022/06/28 05:41:22;;;;;;;5.13;2.47;;;;;;;18.10;100.00;101593.09;5022960;28;20048;-75
2022/06/28 05:43:47;;;;;;;4.03;2.17;;;;;;;19.11;100.00;101562.34;5008532;28;20021;-76
2022/06/28 05:46:12;;;;;;;4.07;2.00;;;;;;;18.73;100.00;101500.44;5008850;28;20056;-76
2022/06/28 05:48:38;;;;;;;4.10;2.47;;;;;;;19.35;100.00;101513.09;5024201;28;20224;-76
2022/06/28 05:51:03;;;;;;;5.90;2.23;;;;;;;19.22;100.00;101448.06;5022417;28;20041;-76
2022/06/28 05:53:29;;;;;;;3.37;2.50;;;;;;;19.77;100.00;101454.28;5024096;28;20029;-76
2022/06/28 05:55:55;;;;;;;5.00;2.38;;;;;;;19.32;100.00;101423.34;5024392;28;20414;-76
2022/06/28 05:58:21;;;;;;;6.72;2.70;;;;;;;18.75;100.00;101474.03;5008118;28;20025;-75
2022/06/28 06:00:47;;;;;;;2.87;2.23;;;;;;;18.68;100.00;101513.72;5024954;28;20033;-76
2022/06/28 06:03:12;;;;;;;;;;;;;;;18.80;100.00;101527.56;5018807;28;21434;-76
2022/06/28 06:05:38;;;;;;;;;;;;;;;18.04;100.00;101523.59;5012219;28;19976;-77
2022/06/28 06:08:03;;;;;;;3.33;2.00;;;;;;;18.45;100.00;101598.63;5008217;28;20050;-76
2022/06/28 06:10:29;;;;;;;2.78;1.85;;;;;;;18.32;100.00;101563.38;5013688;28;20494;-76
2022/06/28 06:12:55;;;;;;;4.13;1.93;;;;;;;18.01;100.00;101544.78;4999589;28;20037;-77
2022/06/28 06:15:20;;;;;;;3.67;2.23;;;;;;;17.83;100.00;101581.16;5014271;28;20040;-76
2022/06/28 06:17:46;;;;;;;4.75;1.83;;;;;;;18.11;100.00;101605.56;4999547;28;20106;-77
2022/06/28 06:20:12;;;;;;;2.55;2.20;;;;;;;18.18;100.00;101599.41;5023695;28;20456;-77
2022/06/28 06:22:37;;;;;;;7.77;3.03;;;;;;;17.87;100.00;101570.81;5024205;28;20028;-76
2022/06/28 06:25:12;;;;;;;3.75;2.60;;;;;;;17.67;100.00;101600.25;5021529;28;20279;-77
2022/06/28 06:27:43;;;;;;;6.13;2.55;;;;;;;18.37;100.00;101647.41;5023751;28;20026;-77
2022/06/28 06:30:09;;;;;;;6.65;2.80;;;;;;;19.35;100.00;101586.19;5022474;28;20383;-77
2022/06/28 06:32:44;;;;;;;6.55;2.40;;;;;;;20.60;100.00;101505.44;5012525;28;20470;-78
2022/06/28 06:35:21;;;;;;;4.75;2.20;;;;;;;21.80;100.00;101420.78;5027692;28;20532;-76
2022/06/28 06:37:47;;;;;;;2.55;2.20;;;;;;;21.34;100.00;101161.16;5011181;28;20025;-75
2022/06/28 06:40:13;;;;;;;2.50;2.07;;;;;;;20.41;100.00;101325.38;5023705;28;20033;-77
2022/06/28 06:42:39;;;;;;;2.75;2.10;;;;;;;20.01;100.00;101401.34;5023687;28;20025;-77
2022/06/28 06:45:05;;;;;;;5.17;2.80;;;;;;;18.44;100.00;101459.06;5023461;28;20549;-77
2022/06/28 06:47:30;;;;;;;8.15;2.90;;;;;;;18.29;100.00;101574.56;5023447;28;20471;-77
2022/06/28 06:49:56;;;;;;;6.47;3.17;;;;;;;18.11;100.00;101600.16;5023474;28;20029;-76
2022/06/28 06:52:21;;;;;;;6.07;3.30;;;;;;;18.37;100.00;101649.28;5023472;28;20287;-76
2022/06/28 06:54:47;;;;;;;;;;;;;;;19.35;100.00;101645.75;5023912;28;20025;-76
2022/06/28 06:57:15;;;;;;;3.97;2.67;;;;;;;19.45;100.00;101607.50;5023666;28;19971;-76
2022/06/28 06:59:41;;;;;;;5.45;2.90;;;;;;;20.16;100.00;101552.13;5007012;28;20104;-76
2022/06/28 07:02:06;;;;;;;7.07;3.83;;;;;;;20.63;100.00;101496.03;5006695;28;20133;-76
2022/06/28 07:04:43;;;;;;;5.72;2.22;;;;;;;21.70;100.00;101420.41;5008532;28;20304;-77
2022/06/28 07:07:09;;;;;;;5.35;2.63;;;;;;;21.83;100.00;101289.03;5023244;28;20030;-76
2022/06/28 07:09:34;;;;;;;3.97;2.28;;;;;;;21.79;100.00;101253.31;5006837;28;20029;-77
2022/06/28 07:12:00;;;;;;;1.87;1.70;;;;;;;22.55;100.00;101281.16;5006873;28;20048;-77
2022/06/28 07:14:26;;;;;;;3.88;1.85;;;;;;;22.29;100.00;101329.38;5023103;28;20389;-77
2022/06/28 07:16:52;;;;;;;5.88;2.63;;;;;;;22.88;100.00;101346.03;5023555;28;20033;-77
2022/06/28 07:19:17;;;;;;;4.17;2.27;;;;;;;23.71;100.00;101180.81;5024651;28;20059;-76
2022/06/28 07:21:44;;;;;;;4.80;2.10;;;;;;;23.57;100.00;101258.47;5021269;28;20303;-78
2022/06/28 07:24:10;;;;;;;4.55;2.63;;;;;;;22.04;100.00;101198.06;5023033;28;20033;-77
2022/06/28 07:26:35;;;;;;;4.30;2.67;;;;;;;21.59;100.00;101369.53;5023336;28;20026;-77
2022/06/28 07:29:03;;;;;;;7.35;2.33;;;;;;;21.74;100.00;101364.56;5004734;28;20369;-77
2022/06/28 07:31:30;;;;;;;7.97;2.42;;;;;;;22.46;100.00;101385.91;5040662;28;20426;-77
2022/06/28 07:33:57;;;;;;;6.15;2.22;;;;;;;22.73;100.00;101316.50;5007403;28;20030;-77
2022/06/28 07:36:24;;;;;;;5.43;2.38;;;;;;;22.85;100.00;101349.22;5023997;28;20049;-77
2022/06/28 07:38:50;;;;;;;4.32;1.92;;;;;;;22.33;100.00;101297.91;5008041;28;20103;-77
2022/06/28 07:41:24;;;;;;;2.38;1.55;;;;;;;23.25;100.00;101367.75;5025918;28;20045;-77
2022/06/28 07:44:12;;;;;;;3.58;2.00;;;;;;;23.65;100.00;101200.03;5022544;28;20048;-77
2022/06/28 07:46:39;;;;;;;10.55;2.85;;;;;;;23.39;100.00;101151.25;5009384;28;20033;-77
2022/06/28 07:49:04;;;;;;;4.50;1.95;;;;;;;22.07;100.00;101050.78;5010414;28;20498;-76
2022/06/28 07:54:17;;;;;;;3.78;2.05;;;;;;;21.66;100.00;101218.13;5026096;28;20053;-76
2022/06/28 07:56:58;;;;;;;3.25;1.80;;;;;;;22.27;100.00;101089.44;5013519;28;20041;-76
2022/06/28 07:59:24;;;;;;;3.40;1.73;;;;;;;21.71;100.00;101172.09;5012949;28;20453;-76
2022/06/28 08:01:50;;;;;;;3.77;1.50;;;;;;;22.36;100.00;101204.19;5027726;28;20029;-76
2022/06/28 08:04:20;;;;;;;5.30;1.77;;;;;;;22.67;100.00;101251.25;5026375;28;20280;-77
2022/06/28 08:06:46;;;;;;;3.37;2.07;;;;;;;23.75;100.00;101314.81;5028061;28;20071;-77
2022/06/28 08:09:12;;;;;;;2.55;1.67;;;;;;;23.33;97.85;101113.25;5026485;28;20760;-77
2022/06/28 08:11:39;;;;;;;;;;;;;;;23.92;93.56;101160.31;5026438;28;20041;-77
2022/06/28 08:14:05;;;;;;;4.78;1.75;;;;;;;23.39;99.42;101188.59;5019505;28;19909;-77
2022/06/28 08:16:31;;;;;;;3.67;1.85;;;;;;;23.07;93.50;101006.47;5009994;28;20394;-76
2022/06/28 08:18:57;;;;;;;2.07;1.43;;;;;;;23.47;100.00;101185.47;5010018;28;20045;-76
2022/06/28 08:21:31;;;;;;;4.30;2.10;;;;;;;23.51;92.03;101088.56;5026210;28;20029;-76
2022/06/28 08:23:56;;;;;;;4.05;2.08;;;;;;;22.97;89.82;100968.09;5026135;28;20502;-76
2022/06/28 08:26:22;;;;;;;3.47;1.60;;;;;;;22.45;94.33;101009.66;5026783;28;20049;-77
2022/06/28 08:28:47;;;;;;;2.83;2.10;;;;;;;22.54;95.17;101057.19;5009975;28;20760;-77
2022/06/28 08:31:13;;;;;;;4.50;2.40;;;;;;;22.13;99.10;101099.63;5009570;28;20279;-77
2022/06/28 08:33:38;;;;;;;2.55;1.75;;;;;;;22.35;100.00;101142.66;5025676;28;20453;-77
2022/06/28 08:36:04;;;;;;;3.57;2.13;;;;;;;20.93;100.00;101056.72;5026225;28;20124;-76
2022/06/28 08:38:29;;;;;;;3.78;2.00;;;;;;;21.65;100.00;101406.66;5026135;28;20280;-76
2022/06/28 08:40:55;;;;;;;1.75;1.60;;;;;;;21.96;100.00;101131.25;5007438;28;20288;-77
2022/06/28 08:43:21;;;;;;;2.35;1.80;;;;;;;22.62;100.00;101300.13;5008380;28;20475;-76
2022/06/28 08:45:47;;;;;;;1.50;1.40;;;;;;;23.41;100.00;101330.00;5025603;28;20088;-76
2022/06/28 08:48:19;;;;;;;4.25;1.88;;;;;;;23.92;92.50;101269.38;5025888;28;20508;-76
2022/06/28 08:50:51;;;;;;;2.28;1.90;;;;;;;23.87;86.35;101135.69;5009190;28;20045;-76
2022/06/28 08:53:19;;;;;;;4.57;1.95;;;;;;;24.21;85.40;101160.34;5026686;28;20170;-76
2022/06/28 08:55:48;;;;;;;2.20;1.60;;;;;;;23.79;87.40;101145.06;5025675;28;20428;-77
2022/06/28 08:58:13;;;;;;;4.47;2.03;;;;;;;24.02;81.10;101075.16;5027186;28;20449;-77
2022/06/28 09:00:38;;;;;;;4.43;2.25;;;;;;;22.79;88.40;101026.22;5009375;28;20029;-76
2022/06/28 09:03:04;;;;;;;5.83;1.70;;;;;;;23.49;85.57;101098.88;5026526;28;20059;-77
2022/06/28 09:05:30;;;;;;;2.17;1.97;;;;;;;24.06;85.04;101199.03;5025726;28;20617;-76
2022/06/28 09:07:56;;;;;;;2.70;1.80;;;;;;;23.79;81.42;101068.72;5026917;28;20033;-78
2022/06/28 09:10:21;;;;;;;;;;;;;;;24.29;82.45;101214.53;5024455;28;20030;-78
2022/06/28 09:12:54;;;;;;;3.03;1.63;;;;;;;24.21;76.92;101070.34;5010993;28;20018;-78
2022/06/28 09:15:24;;;;;;;1.83;1.30;;;;;;;24.40;73.73;101041.75;5029285;28;20033;-79
2022/06/28 09:17:55;;;;;;;3.38;1.33;;;;;;;24.30;76.16;101098.84;5028341;28;20045;-78
2022/06/28 09:20:34;;;;;;;2.28;1.35;;;;;;;24.74;69.58;100992.63;5026968;28;20128;-78
2022/06/28 09:22:59;;;;;;;2.40;1.52;;;;;;;24.31;76.88;101086.06;5027382;28;20095;-77
2022/06/28 09:25:31;;;;;;;2.10;1.52;;;;;;;23.20;79.87;100988.19;5026757;28;20029;-77
2022/06/28 09:28:01;;;;;;;3.17;1.73;;;;;;;24.05;82.20;101193.84;5027188;28;20426;-79
2022/06/28 09:30:30;;;;;;;2.08;1.40;;;;;;;24.93;73.65;101131.59;5027200;28;20051;-76
2022/06/28 09:32:56;;;;;;;2.72;1.30;;;;;;;25.45;69.51;101129.41;5027574;28;20201;-79
2022/06/28 09:35:25;;;;;;;;;;;;;;;25.50;69.77;101104.06;5025945;28;20536;-77
2022/06/28 09:37:51;;;;;;;2.90;1.85;;;;;;;25.54;63.46;100927.50;5025184;28;20003;-77
2022/06/28 09:40:28;;;;;;;;;;;;;;;25.78;60.27;100869.75;5008333;28;20087;-77
2022/06/28 09:43:14;;;;;;;2.88;1.58;;;;;;;25.85;61.86;100964.19;5024484;28;19927;-77
2022/06/28 09:45:46;;;;;;;3.83;2.05;;;;;;;25.57;62.10;100886.00;5024123;28;20498;-77
2022/06/28 09:48:19;;;;;;;2.50;1.80;;;;;;;25.03;62.23;100796.66;5024764;28;20128;-77
2022/06/28 09:50:44;;;;;;;3.30;1.95;;;;;;;25.96;62.23;100976.06;5025899;28;20079;-77
2022/06/28 09:53:14;;;;;;;2.95;1.90;;;;;;;26.17;60.21;100946.97;5026769;28;20021;-77
2022/06/28 09:55:41;;;;;;;2.42;2.10;;;;;;;25.78;60.97;100875.22;5024939;28;20498;-78
2022/06/28 09:58:07;;;;;;;3.78;2.15;;;;;;;25.72;59.06;100783.34;5017253;28;20025;-77
2022/06/28 10:00:35;;;;;;;3.55;2.10;;;;;;;26.18;62.88;101032.66;5026001;28;20171;-78
2022/06/28 10:03:01;;;;;;;3.72;2.85;;;;;;;26.35;59.91;100951.22;5026043;28;20115;-77
2022/06/28 10:05:27;;;;;;;4.18;2.38;;;;;;;26.45;60.43;101000.56;5025875;28;20037;-77
2022/06/28 10:07:53;;;;;;;3.97;2.20;;;;;;;24.13;65.66;100686.16;5026035;28;20027;-77
2022/06/28 10:10:22;;;;;;;;;;;;;;;24.46;68.99;100908.09;5008045;28;20043;-77
2022/06/28 10:16:00;;;;;;;2.45;2.25;;;;;;;26.03;59.95;100913.75;5027325;28;20505;-77
2022/06/28 10:18:27;;;;;;;3.17;1.90;;;;;;;25.67;64.42;101006.38;5025048;28;20033;-78
2022/06/28 10:20:52;;;;;;;3.60;2.13;;;;;;;25.24;67.08;100983.50;5026174;28;20021;-77
2022/06/28 10:23:40;;;;;;;3.70;1.90;;;;;;;25.67;62.42;100934.47;5023240;28;20045;-77
2022/06/28 10:26:15;;;;;;;2.15;1.88;;;;;;;25.76;61.82;100937.59;5021705;28;20653;-77
2022/06/28 10:28:47;;;;;;;5.22;2.22;;;;;;;26.24;55.29;100774.38;5009135;28;20029;-77
2022/06/28 10:31:25;;;;;;;2.85;1.70;;;;;;;26.58;54.83;100850.66;5024004;28;20042;-78
2022/06/28 10:33:56;;;;;;;3.75;1.30;;;;;;;27.01;52.25;100799.31;5008311;28;20037;-77
2022/06/28 10:36:24;;;;;;;3.50;1.60;;;;;;;26.91;50.11;100642.06;5027156;28;20038;-77
2022/06/28 10:39:01;;;;;;;2.72;1.38;;;;;;;28.14;49.77;100876.97;5025653;28;20013;-77
2022/06/28 10:41:45;;;;;;;3.65;1.70;;;;;;;28.05;50.04;100873.13;5027232;28;20029;-77
2022/06/28 10:44:14;;;;;;;3.60;2.03;;;;;;;25.59;54.86;100620.56;5023370;28;20112;-77
2022/06/28 10:46:51;;;;;;;4.05;2.30;;;;;;;25.45;58.53;100800.59;5026580;28;20470;-77
2022/06/28 10:49:16;;;;;;;4.22;1.60;;;;;;;26.68;54.89;100916.41;5026152;28;20037;-77
2022/06/28 10:52:15;;;;;;;2.90;1.77;;;;;;;26.29;56.38;100879.22;5026019;28;20029;-77
2022/06/28 10:54:52;;;;;;;3.50;2.30;;;;;;;26.81;52.09;100800.91;5036237;28;20033;-77
2022/06/28 10:57:19;;;;;;;6.32;1.50;;;;;;;27.21;49.75;100702.63;5009639;28;20041;-77
2022/06/28 10:59:47;;;;;;;3.25;1.85;;;;;;;27.01;47.73;100564.50;5009390;28;20471;-78
2022/06/28 11:02:12;;;;;;;2.75;1.35;;;;;;;26.52;48.90;100645.28;5026784;28;20033;-77
2022/06/28 11:04:38;;;;;;;1.88;1.23;;;;;;;26.98;47.69;100703.97;5026698;28;20485;-77
2022/06/28 11:07:21;;;;;;;3.10;1.23;;;;;;;27.58;48.25;100896.97;5025778;28;20390;-77
2022/06/28 11:09:59;;;;;;;2.53;1.30;;;;;;;27.40;46.71;100753.06;5029394;28;20069;-78
2022/06/28 11:12:27;;;;;;;3.20;1.55;;;;;;;28.01;48.76;100971.66;5019295;28;20049;-78
2022/06/28 11:15:02;;;;;;;2.70;1.88;;;;;;;25.99;51.14;100674.69;5001117;28;20512;-77
2022/06/28 11:17:29;;;;;;;4.65;1.83;;;;;;;26.59;52.16;100885.97;5025300;28;20530;-77
2022/06/28 11:20:04;;;;;;;2.53;1.52;;;;;;;28.34;51.11;101197.34;5026792;28;20482;-78
2022/06/28 11:22:40;;;;;;;3.78;1.48;;;;;;;27.81;48.04;100850.91;5026836;28;20040;-77
2022/06/28 11:25:08;;;;;;;3.83;1.15;;;;;;;28.22;46.70;100837.19;5013533;28;20119;-78
2022/06/28 11:27:33;;;;;;;5.93;1.77;;;;;;;26.50;49.94;100710.44;5031029;28;20036;-77
2022/06/28 11:29:59;;;;;;;4.68;1.60;;;;;;;27.34;46.99;100744.00;5030006;28;20049;-78
2022/06/28 11:32:27;;;;;;;2.43;1.30;;;;;;;26.59;47.42;100592.22;5029300;28;20025;-78
2022/06/28 11:34:58;;;;;;;2.00;1.08;;;;;;;26.63;47.87;100651.63;5030682;28;20565;-77
2022/06/28 11:37:24;;;;;;;3.70;1.33;;;;;;;27.05;49.39;100803.16;5032120;28;20040;-78
2022/06/28 11:39:54;;;;;;;3.13;1.42;;;;;;;27.46;48.29;100842.41;5030677;28;20793;-78
2022/06/28 11:42:19;;;;;;;3.17;1.23;;;;;;;27.14;45.69;100618.75;5031502;28;20502;-77
2022/06/28 11:44:46;;;;;;;6.32;1.30;;;;;;;27.22;45.81;100658.50;5030672;28;20021;-78
2022/06/28 11:47:13;;;;;;;4.38;1.35;;;;;;;27.86;44.43;100708.28;5031445;28;20033;-78